This is the latest recevied weather packets stored in our database for station/object K4FB. If no packets are shown the sender has not sent any weather packets the latest 10 day(s).
| Time | Temp. | Humidity | Pressure | Rain* | Wind** | Luminosity | Snow |
|---|---|---|---|---|---|---|---|
| 1777172705 | 20.56° C | 87% | 1012.8 hPa | 0 mm | - | - | - |
| 1777172104 | 21.11° C | 86% | 1012.8 hPa | 0 mm | - | - | - |
| 1777167915 | 21.67° C | 84% | 1012.2 hPa | 0 mm | - | - | - |
| 1777167307 | 21.67° C | 84% | 1012.2 hPa | 0 mm | - | - | - |
| 1777166707 | 21.67° C | 84% | 1012.1 hPa | 0 mm | - | - | - |
| 1777166124 | 21.67° C | 84% | 1011.9 hPa | 0 mm | - | - | - |
| 1777164907 | 22.22° C | 84% | 1011.9 hPa | 0 mm | - | - | - |
| 1777163705 | 22.78° C | 81% | 1011.6 hPa | 0 mm | - | - | - |
| 1777162519 | 23.33° C | 79% | 1011.3 hPa | 0 mm | - | - | - |
| 1777161305 | 24.44° C | 76% | 1010.8 hPa | 0 mm | - | - | - |
| 1777159209 | 25.56° C | 71% | 1010.3 hPa | 0 mm | - | - | - |
| 1777158923 | 26.11° C | 70% | 1010.3 hPa | 0 mm | - | - | - |
| 1777157117 | 27.22° C | 70% | 1010.8 hPa | 0.51 mm | - | - | - |
| 1777154103 | 22.78° C | 78% | 1011.2 hPa | 0.25 mm | - | - | - |
| 1777150505 | 24.44° C | 75% | 1011.4 hPa | 0 mm | - | - | - |
| 1777148403 | 26.11° C | 58% | 1010.8 hPa | 0 mm | - | - | - |
| 1777146904 | 31.11° C | 44% | 1010.9 hPa | 0 mm | - | - | - |
| 1777145414 | 31.67° C | 45% | 1011 hPa | 0 mm | - | - | - |
| 1777143907 | 33.89° C | 41% | 1011.3 hPa | 0 mm | - | - | - |
| 1777142710 | 32.22° C | 43% | 1012 hPa | 0 mm | - | - | - |
| 1777141811 | 31.67° C | 42% | 1012.1 hPa | 0 mm | - | - | - |
| 1777138805 | 31.67° C | 49% | 1012.5 hPa | 0 mm | - | - | - |
| 1777138504 | 31.67° C | 46% | 1012.5 hPa | 0 mm | - | - | - |
| 1777138210 | 31.67° C | 44% | 1012.6 hPa | 0 mm | - | - | - |
| 1777137005 | 32.22° C | 47% | 1012.5 hPa | 0 mm | - | - | - |
* Rain latest hour (hover to see other rain measurements)
** Current wind speed in m/s (hover to see current wind gust speed)